sensor_id;sensor_type;location;lat;lon;timestamp;temperature;humidity
4643;DHT22;2334;48.710;9.622;2023-07-13T00:00:47;21.30;99.90
4643;DHT22;2334;48.710;9.622;2023-07-13T00:03:13;21.30;99.90
4643;DHT22;2334;48.710;9.622;2023-07-13T00:05:40;21.30;99.90
4643;DHT22;2334;48.710;9.622;2023-07-13T00:08:08;21.30;99.90
4643;DHT22;2334;48.710;9.622;2023-07-13T00:10:40;21.30;99.90
4643;DHT22;2334;48.710;9.622;2023-07-13T00:13:08;21.30;99.90
4643;DHT22;2334;48.710;9.622;2023-07-13T00:15:36;21.40;99.90
4643;DHT22;2334;48.710;9.622;2023-07-13T00:18:03;21.30;99.90
4643;DHT22;2334;48.710;9.622;2023-07-13T00:20:30;21.30;99.90
4643;DHT22;2334;48.710;9.622;2023-07-13T00:22:57;21.30;99.90
4643;DHT22;2334;48.710;9.622;2023-07-13T00:25:24;21.30;99.90
4643;DHT22;2334;48.710;9.622;2023-07-13T00:27:55;21.20;99.90
4643;DHT22;2334;48.710;9.622;2023-07-13T00:30:22;21.20;99.90
4643;DHT22;2334;48.710;9.622;2023-07-13T00:32:49;21.20;99.90
4643;DHT22;2334;48.710;9.622;2023-07-13T00:35:16;21.20;99.90
4643;DHT22;2334;48.710;9.622;2023-07-13T00:37:44;21.10;99.90
4643;DHT22;2334;48.710;9.622;2023-07-13T00:40:12;21.10;99.90
4643;DHT22;2334;48.710;9.622;2023-07-13T00:42:39;21.10;99.90
4643;DHT22;2334;48.710;9.622;2023-07-13T00:48:09;20.80;99.90
4643;DHT22;2334;48.710;9.622;2023-07-13T00:50:37;20.90;99.90
4643;DHT22;2334;48.710;9.622;2023-07-13T00:53:04;20.90;99.90
4643;DHT22;2334;48.710;9.622;2023-07-13T00:55:31;20.90;99.90
4643;DHT22;2334;48.710;9.622;2023-07-13T00:57:58;20.90;99.90
4643;DHT22;2334;48.710;9.622;2023-07-13T01:00:25;20.90;99.90
4643;DHT22;2334;48.710;9.622;2023-07-13T01:02:53;20.80;99.90
4643;DHT22;2334;48.710;9.622;2023-07-13T01:05:22;20.80;99.90
4643;DHT22;2334;48.710;9.622;2023-07-13T01:07:51;20.80;99.90
4643;DHT22;2334;48.710;9.622;2023-07-13T01:10:22;20.80;99.90
4643;DHT22;2334;48.710;9.622;2023-07-13T01:12:49;20.80;99.90
4643;DHT22;2334;48.710;9.622;2023-07-13T01:15:36;20.70;99.90
4643;DHT22;2334;48.710;9.622;2023-07-13T01:18:04;20.60;99.90
4643;DHT22;2334;48.710;9.622;2023-07-13T01:20:33;20.60;99.90
4643;DHT22;2334;48.710;9.622;2023-07-13T01:23:04;20.60;99.90
4643;DHT22;2334;48.710;9.622;2023-07-13T01:25:32;20.50;99.90
4643;DHT22;2334;48.710;9.622;2023-07-13T01:27:59;20.50;99.90
4643;DHT22;2334;48.710;9.622;2023-07-13T01:30:26;20.50;99.90
4643;DHT22;2334;48.710;9.622;2023-07-13T01:32:52;20.40;99.90
4643;DHT22;2334;48.710;9.622;2023-07-13T01:35:19;20.40;99.90
4643;DHT22;2334;48.710;9.622;2023-07-13T01:37:46;20.40;99.90
4643;DHT22;2334;48.710;9.622;2023-07-13T01:40:14;20.40;99.90
4643;DHT22;2334;48.710;9.622;2023-07-13T01:42:41;20.40;99.90
4643;DHT22;2334;48.710;9.622;2023-07-13T01:45:09;20.30;99.90
4643;DHT22;2334;48.710;9.622;2023-07-13T01:47:36;20.30;99.90
4643;DHT22;2334;48.710;9.622;2023-07-13T01:50:03;20.30;99.90
4643;DHT22;2334;48.710;9.622;2023-07-13T01:52:30;20.20;99.90
4643;DHT22;2334;48.710;9.622;2023-07-13T01:54:57;20.10;99.90
4643;DHT22;2334;48.710;9.622;2023-07-13T01:57:25;20.10;99.90
4643;DHT22;2334;48.710;9.622;2023-07-13T01:59:52;20.00;99.90
4643;DHT22;2334;48.710;9.622;2023-07-13T02:02:19;20.00;99.90
4643;DHT22;2334;48.710;9.622;2023-07-13T02:04:46;20.00;99.90
4643;DHT22;2334;48.710;9.622;2023-07-13T02:07:13;19.90;99.90
4643;DHT22;2334;48.710;9.622;2023-07-13T02:09:41;19.90;99.90
4643;DHT22;2334;48.710;9.622;2023-07-13T02:12:09;19.80;99.90
4643;DHT22;2334;48.710;9.622;2023-07-13T02:14:37;19.70;99.90
4643;DHT22;2334;48.710;9.622;2023-07-13T02:17:04;19.70;99.90
4643;DHT22;2334;48.710;9.622;2023-07-13T02:19:31;19.70;99.90
4643;DHT22;2334;48.710;9.622;2023-07-13T02:21:58;19.70;99.90
4643;DHT22;2334;48.710;9.622;2023-07-13T02:24:25;19.60;99.90
4643;DHT22;2334;48.710;9.622;2023-07-13T02:26:52;19.70;99.90
4643;DHT22;2334;48.710;9.622;2023-07-13T02:29:19;19.70;99.90
4643;DHT22;2334;48.710;9.622;2023-07-13T02:31:48;19.70;99.90
4643;DHT22;2334;48.710;9.622;2023-07-13T02:34:15;19.60;99.90
4643;DHT22;2334;48.710;9.622;2023-07-13T02:36:42;19.60;99.90
4643;DHT22;2334;48.710;9.622;2023-07-13T02:39:09;19.60;99.90
4643;DHT22;2334;48.710;9.622;2023-07-13T02:41:38;19.50;99.90
4643;DHT22;2334;48.710;9.622;2023-07-13T02:44:05;19.50;99.90
4643;DHT22;2334;48.710;9.622;2023-07-13T02:46:36;19.60;99.90
4643;DHT22;2334;48.710;9.622;2023-07-13T02:49:04;19.50;99.90
4643;DHT22;2334;48.710;9.622;2023-07-13T02:51:31;19.50;99.90
4643;DHT22;2334;48.710;9.622;2023-07-13T02:53:59;19.50;99.90
4643;DHT22;2334;48.710;9.622;2023-07-13T02:56:29;19.50;99.90
4643;DHT22;2334;48.710;9.622;2023-07-13T02:58:57;19.40;99.90
4643;DHT22;2334;48.710;9.622;2023-07-13T03:01:24;19.50;99.90
4643;DHT22;2334;48.710;9.622;2023-07-13T03:03:52;19.50;99.90
4643;DHT22;2334;48.710;9.622;2023-07-13T03:06:20;19.50;99.90
4643;DHT22;2334;48.710;9.622;2023-07-13T03:08:48;19.40;99.90
4643;DHT22;2334;48.710;9.622;2023-07-13T03:11:17;19.20;99.90
4643;DHT22;2334;48.710;9.622;2023-07-13T03:13:45;19.10;99.90
4643;DHT22;2334;48.710;9.622;2023-07-13T03:16:12;19.00;99.90
4643;DHT22;2334;48.710;9.622;2023-07-13T03:18:41;19.00;99.90
4643;DHT22;2334;48.710;9.622;2023-07-13T03:21:09;19.00;99.90
4643;DHT22;2334;48.710;9.622;2023-07-13T03:23:37;19.00;99.90
4643;DHT22;2334;48.710;9.622;2023-07-13T03:26:05;19.10;99.90
4643;DHT22;2334;48.710;9.622;2023-07-13T03:28:33;19.00;99.90
4643;DHT22;2334;48.710;9.622;2023-07-13T03:31:01;19.00;99.90
4643;DHT22;2334;48.710;9.622;2023-07-13T03:33:28;19.00;99.90
4643;DHT22;2334;48.710;9.622;2023-07-13T03:35:55;19.00;99.90
4643;DHT22;2334;48.710;9.622;2023-07-13T03:38:22;18.90;99.90
4643;DHT22;2334;48.710;9.622;2023-07-13T03:40:50;18.90;99.90
4643;DHT22;2334;48.710;9.622;2023-07-13T03:43:17;18.80;99.90
4643;DHT22;2334;48.710;9.622;2023-07-13T03:45:45;18.90;99.90
4643;DHT22;2334;48.710;9.622;2023-07-13T03:48:12;18.90;99.90
4643;DHT22;2334;48.710;9.622;2023-07-13T03:50:40;18.80;99.90
4643;DHT22;2334;48.710;9.622;2023-07-13T03:53:07;18.70;99.90
4643;DHT22;2334;48.710;9.622;2023-07-13T03:55:34;18.70;99.90
4643;DHT22;2334;48.710;9.622;2023-07-13T03:58:23;18.70;99.90
4643;DHT22;2334;48.710;9.622;2023-07-13T04:00:50;18.80;99.90
4643;DHT22;2334;48.710;9.622;2023-07-13T04:03:17;18.80;99.90
4643;DHT22;2334;48.710;9.622;2023-07-13T04:05:44;18.80;99.90
4643;DHT22;2334;48.710;9.622;2023-07-13T04:08:11;18.90;99.90
4643;DHT22;2334;48.710;9.622;2023-07-13T04:10:38;19.00;99.90
4643;DHT22;2334;48.710;9.622;2023-07-13T04:13:06;19.00;99.90
4643;DHT22;2334;48.710;9.622;2023-07-13T04:15:33;18.90;99.90
4643;DHT22;2334;48.710;9.622;2023-07-13T04:18:00;18.90;99.90
4643;DHT22;2334;48.710;9.622;2023-07-13T04:20:28;18.90;99.90
4643;DHT22;2334;48.710;9.622;2023-07-13T04:22:55;18.80;99.90
4643;DHT22;2334;48.710;9.622;2023-07-13T04:25:23;18.80;99.90
4643;DHT22;2334;48.710;9.622;2023-07-13T04:27:50;18.90;99.90
4643;DHT22;2334;48.710;9.622;2023-07-13T04:30:19;18.90;99.90
4643;DHT22;2334;48.710;9.622;2023-07-13T04:32:46;18.90;99.90
4643;DHT22;2334;48.710;9.622;2023-07-13T04:35:13;18.80;99.90
4643;DHT22;2334;48.710;9.622;2023-07-13T04:37:40;18.80;99.90
4643;DHT22;2334;48.710;9.622;2023-07-13T04:40:08;18.80;99.90
4643;DHT22;2334;48.710;9.622;2023-07-13T04:42:37;18.80;99.90
4643;DHT22;2334;48.710;9.622;2023-07-13T04:45:05;18.70;99.90
4643;DHT22;2334;48.710;9.622;2023-07-13T04:47:34;18.90;99.90
4643;DHT22;2334;48.710;9.622;2023-07-13T04:50:01;19.00;99.90
4643;DHT22;2334;48.710;9.622;2023-07-13T04:52:28;19.00;99.90
4643;DHT22;2334;48.710;9.622;2023-07-13T04:54:55;18.90;99.90
4643;DHT22;2334;48.710;9.622;2023-07-13T04:57:22;19.00;99.90
4643;DHT22;2334;48.710;9.622;2023-07-13T04:59:49;19.10;99.90
4643;DHT22;2334;48.710;9.622;2023-07-13T05:02:16;19.10;99.90
4643;DHT22;2334;48.710;9.622;2023-07-13T05:04:46;19.20;99.90
4643;DHT22;2334;48.710;9.622;2023-07-13T05:07:13;19.20;99.90
4643;DHT22;2334;48.710;9.622;2023-07-13T05:09:40;19.20;99.90
4643;DHT22;2334;48.710;9.622;2023-07-13T05:12:08;19.20;99.90
4643;DHT22;2334;48.710;9.622;2023-07-13T05:14:35;19.30;99.90
4643;DHT22;2334;48.710;9.622;2023-07-13T05:17:02;19.10;99.90
4643;DHT22;2334;48.710;9.622;2023-07-13T05:19:29;19.20;99.90
4643;DHT22;2334;48.710;9.622;2023-07-13T05:21:57;19.10;99.90
4643;DHT22;2334;48.710;9.622;2023-07-13T05:24:24;19.10;99.90
4643;DHT22;2334;48.710;9.622;2023-07-13T05:26:51;19.10;99.90
4643;DHT22;2334;48.710;9.622;2023-07-13T05:29:19;18.90;99.90
4643;DHT22;2334;48.710;9.622;2023-07-13T05:31:45;18.90;99.90
4643;DHT22;2334;48.710;9.622;2023-07-13T05:34:12;18.90;99.90
4643;DHT22;2334;48.710;9.622;2023-07-13T05:36:40;19.00;99.90
4643;DHT22;2334;48.710;9.622;2023-07-13T05:39:08;19.20;99.90
4643;DHT22;2334;48.710;9.622;2023-07-13T05:41:35;19.30;99.90
4643;DHT22;2334;48.710;9.622;2023-07-13T05:44:02;19.30;99.90
4643;DHT22;2334;48.710;9.622;2023-07-13T05:46:29;19.20;99.90
4643;DHT22;2334;48.710;9.622;2023-07-13T05:48:56;19.20;99.90
4643;DHT22;2334;48.710;9.622;2023-07-13T05:51:23;19.20;99.90
4643;DHT22;2334;48.710;9.622;2023-07-13T05:53:50;19.20;99.90
4643;DHT22;2334;48.710;9.622;2023-07-13T05:56:18;19.30;99.90
4643;DHT22;2334;48.710;9.622;2023-07-13T05:58:45;19.20;99.90
4643;DHT22;2334;48.710;9.622;2023-07-13T06:01:14;19.30;99.90
4643;DHT22;2334;48.710;9.622;2023-07-13T06:03:41;19.50;99.90
4643;DHT22;2334;48.710;9.622;2023-07-13T06:06:09;19.50;99.90
4643;DHT22;2334;48.710;9.622;2023-07-13T06:08:36;19.50;99.90
4643;DHT22;2334;48.710;9.622;2023-07-13T06:11:04;19.60;99.90
4643;DHT22;2334;48.710;9.622;2023-07-13T06:13:33;19.70;99.90
4643;DHT22;2334;48.710;9.622;2023-07-13T06:16:00;19.80;99.90
4643;DHT22;2334;48.710;9.622;2023-07-13T06:18:29;19.90;99.90
4643;DHT22;2334;48.710;9.622;2023-07-13T06:20:57;19.80;99.90
4643;DHT22;2334;48.710;9.622;2023-07-13T06:23:24;19.80;99.90
4643;DHT22;2334;48.710;9.622;2023-07-13T06:25:51;19.90;99.90
4643;DHT22;2334;48.710;9.622;2023-07-13T06:28:18;20.00;99.90
4643;DHT22;2334;48.710;9.622;2023-07-13T06:30:46;20.10;99.90
4643;DHT22;2334;48.710;9.622;2023-07-13T06:33:13;20.20;99.90
4643;DHT22;2334;48.710;9.622;2023-07-13T06:35:40;20.20;99.90
4643;DHT22;2334;48.710;9.622;2023-07-13T06:38:07;20.20;99.90
4643;DHT22;2334;48.710;9.622;2023-07-13T06:40:34;20.50;99.90
4643;DHT22;2334;48.710;9.622;2023-07-13T06:43:01;20.70;99.90
4643;DHT22;2334;48.710;9.622;2023-07-13T06:45:27;21.00;99.90
4643;DHT22;2334;48.710;9.622;2023-07-13T06:47:56;20.80;99.90
4643;DHT22;2334;48.710;9.622;2023-07-13T06:50:23;21.00;99.90
4643;DHT22;2334;48.710;9.622;2023-07-13T06:52:49;21.00;99.90
4643;DHT22;2334;48.710;9.622;2023-07-13T06:55:16;21.20;99.90
4643;DHT22;2334;48.710;9.622;2023-07-13T06:57:43;21.40;99.90
4643;DHT22;2334;48.710;9.622;2023-07-13T07:00:11;21.40;99.90
4643;DHT22;2334;48.710;9.622;2023-07-13T07:02:38;21.10;99.90
4643;DHT22;2334;48.710;9.622;2023-07-13T07:05:07;20.90;99.90
4643;DHT22;2334;48.710;9.622;2023-07-13T07:07:34;21.00;99.90
4643;DHT22;2334;48.710;9.622;2023-07-13T07:10:01;20.90;99.90
4643;DHT22;2334;48.710;9.622;2023-07-13T07:12:29;20.70;99.90
4643;DHT22;2334;48.710;9.622;2023-07-13T07:14:56;20.60;99.90
4643;DHT22;2334;48.710;9.622;2023-07-13T07:17:23;20.80;99.90
4643;DHT22;2334;48.710;9.622;2023-07-13T07:19:50;21.00;99.90
4643;DHT22;2334;48.710;9.622;2023-07-13T07:22:20;21.40;99.90
4643;DHT22;2334;48.710;9.622;2023-07-13T07:24:47;21.80;99.90
4643;DHT22;2334;48.710;9.622;2023-07-13T07:27:14;21.90;99.90
4643;DHT22;2334;48.710;9.622;2023-07-13T07:29:41;22.00;99.90
4643;DHT22;2334;48.710;9.622;2023-07-13T07:32:08;22.10;99.90
4643;DHT22;2334;48.710;9.622;2023-07-13T07:34:35;22.20;99.90
4643;DHT22;2334;48.710;9.622;2023-07-13T07:37:02;22.50;99.90
4643;DHT22;2334;48.710;9.622;2023-07-13T07:39:30;22.60;99.90
4643;DHT22;2334;48.710;9.622;2023-07-13T07:41:58;22.60;99.90
4643;DHT22;2334;48.710;9.622;2023-07-13T07:44:25;22.60;99.90
4643;DHT22;2334;48.710;9.622;2023-07-13T07:46:52;22.80;99.90
4643;DHT22;2334;48.710;9.622;2023-07-13T07:49:19;22.80;99.90
4643;DHT22;2334;48.710;9.622;2023-07-13T07:51:46;23.20;99.90
4643;DHT22;2334;48.710;9.622;2023-07-13T07:54:13;23.30;99.90
4643;DHT22;2334;48.710;9.622;2023-07-13T07:56:41;23.20;99.90
4643;DHT22;2334;48.710;9.622;2023-07-13T07:59:08;23.10;99.90
4643;DHT22;2334;48.710;9.622;2023-07-13T08:01:35;22.80;99.90
4643;DHT22;2334;48.710;9.622;2023-07-13T08:04:02;22.90;99.90
4643;DHT22;2334;48.710;9.622;2023-07-13T08:06:31;22.90;99.90
4643;DHT22;2334;48.710;9.622;2023-07-13T08:08:59;23.00;99.90
4643;DHT22;2334;48.710;9.622;2023-07-13T08:11:27;23.30;99.90
4643;DHT22;2334;48.710;9.622;2023-07-13T08:13:55;23.60;99.90
4643;DHT22;2334;48.710;9.622;2023-07-13T08:16:22;23.70;99.90
4643;DHT22;2334;48.710;9.622;2023-07-13T08:18:50;24.00;99.90
4643;DHT22;2334;48.710;9.622;2023-07-13T08:21:17;24.30;99.90
4643;DHT22;2334;48.710;9.622;2023-07-13T08:23:45;24.10;99.90
4643;DHT22;2334;48.710;9.622;2023-07-13T08:26:12;24.10;99.90
4643;DHT22;2334;48.710;9.622;2023-07-13T08:28:40;24.40;99.90
4643;DHT22;2334;48.710;9.622;2023-07-13T08:31:09;24.40;99.90
4643;DHT22;2334;48.710;9.622;2023-07-13T08:33:37;24.10;99.90
4643;DHT22;2334;48.710;9.622;2023-07-13T08:36:06;23.70;99.90
4643;DHT22;2334;48.710;9.622;2023-07-13T08:38:33;23.90;99.90
4643;DHT22;2334;48.710;9.622;2023-07-13T08:41:09;23.80;99.90
4643;DHT22;2334;48.710;9.622;2023-07-13T08:43:37;23.90;99.90
4643;DHT22;2334;48.710;9.622;2023-07-13T08:46:09;24.30;99.90
4643;DHT22;2334;48.710;9.622;2023-07-13T08:48:42;24.20;99.90
4643;DHT22;2334;48.710;9.622;2023-07-13T08:51:20;24.00;99.90
4643;DHT22;2334;48.710;9.622;2023-07-13T08:53:50;24.40;99.90
4643;DHT22;2334;48.710;9.622;2023-07-13T08:56:21;24.30;99.60
4643;DHT22;2334;48.710;9.622;2023-07-13T08:58:51;24.40;99.90
4643;DHT22;2334;48.710;9.622;2023-07-13T09:01:28;24.60;99.90
4643;DHT22;2334;48.710;9.622;2023-07-13T09:04:02;25.00;99.20
4643;DHT22;2334;48.710;9.622;2023-07-13T09:06:36;25.40;98.30
4643;DHT22;2334;48.710;9.622;2023-07-13T09:09:10;25.10;98.20
4643;DHT22;2334;48.710;9.622;2023-07-13T09:11:46;25.20;98.50
4643;DHT22;2334;48.710;9.622;2023-07-13T09:14:33;25.60;97.70
4643;DHT22;2334;48.710;9.622;2023-07-13T09:17:04;25.20;97.80
4643;DHT22;2334;48.710;9.622;2023-07-13T09:19:32;25.10;98.20
4643;DHT22;2334;48.710;9.622;2023-07-13T09:22:02;25.20;97.70
4643;DHT22;2334;48.710;9.622;2023-07-13T09:24:45;25.60;97.60
4643;DHT22;2334;48.710;9.622;2023-07-13T09:27:21;26.10;97.50
4643;DHT22;2334;48.710;9.622;2023-07-13T09:29:54;25.70;96.50
4643;DHT22;2334;48.710;9.622;2023-07-13T09:32:25;26.20;97.00
4643;DHT22;2334;48.710;9.622;2023-07-13T09:34:56;26.60;97.30
4643;DHT22;2334;48.710;9.622;2023-07-13T09:37:29;27.10;96.20
4643;DHT22;2334;48.710;9.622;2023-07-13T09:40:00;27.30;96.00
4643;DHT22;2334;48.710;9.622;2023-07-13T09:42:32;27.50;95.60
4643;DHT22;2334;48.710;9.622;2023-07-13T09:45:02;27.40;95.50
4643;DHT22;2334;48.710;9.622;2023-07-13T09:47:39;27.10;95.50
4643;DHT22;2334;48.710;9.622;2023-07-13T09:50:10;26.60;95.50
4643;DHT22;2334;48.710;9.622;2023-07-13T09:52:43;26.60;96.50
4643;DHT22;2334;48.710;9.622;2023-07-13T09:55:25;26.70;95.40
4643;DHT22;2334;48.710;9.622;2023-07-13T09:57:52;26.60;95.70
4643;DHT22;2334;48.710;9.622;2023-07-13T10:00:22;26.80;95.00
4643;DHT22;2334;48.710;9.622;2023-07-13T10:03:00;26.70;95.30
4643;DHT22;2334;48.710;9.622;2023-07-13T10:05:37;27.30;95.10
4643;DHT22;2334;48.710;9.622;2023-07-13T10:08:04;27.60;94.50
4643;DHT22;2334;48.710;9.622;2023-07-13T10:10:33;27.40;95.10
4643;DHT22;2334;48.710;9.622;2023-07-13T10:13:01;26.80;94.50
4643;DHT22;2334;48.710;9.622;2023-07-13T10:15:30;27.10;94.70
4643;DHT22;2334;48.710;9.622;2023-07-13T10:17:59;26.80;95.00
4643;DHT22;2334;48.710;9.622;2023-07-13T10:20:26;26.70;94.20
4643;DHT22;2334;48.710;9.622;2023-07-13T10:22:56;26.80;94.40
4643;DHT22;2334;48.710;9.622;2023-07-13T10:25:29;26.60;94.90
4643;DHT22;2334;48.710;9.622;2023-07-13T10:28:02;27.40;94.20
4643;DHT22;2334;48.710;9.622;2023-07-13T10:30:33;27.50;93.50
4643;DHT22;2334;48.710;9.622;2023-07-13T10:33:05;27.50;94.10
4643;DHT22;2334;48.710;9.622;2023-07-13T10:35:37;27.60;94.00
4643;DHT22;2334;48.710;9.622;2023-07-13T10:38:10;27.60;93.50
4643;DHT22;2334;48.710;9.622;2023-07-13T10:40:40;27.80;93.90
4643;DHT22;2334;48.710;9.622;2023-07-13T10:43:15;28.30;93.40
4643;DHT22;2334;48.710;9.622;2023-07-13T10:45:45;27.80;92.80
4643;DHT22;2334;48.710;9.622;2023-07-13T10:48:16;27.70;93.20
4643;DHT22;2334;48.710;9.622;2023-07-13T10:50:45;27.70;93.70
4643;DHT22;2334;48.710;9.622;2023-07-13T10:53:19;27.70;92.00
4643;DHT22;2334;48.710;9.622;2023-07-13T10:56:00;27.40;92.40
4643;DHT22;2334;48.710;9.622;2023-07-13T10:58:34;28.10;93.10
4643;DHT22;2334;48.710;9.622;2023-07-13T11:01:06;27.50;92.20
4643;DHT22;2334;48.710;9.622;2023-07-13T11:03:36;26.90;92.10
4643;DHT22;2334;48.710;9.622;2023-07-13T11:06:08;26.60;92.70
4643;DHT22;2334;48.710;9.622;2023-07-13T11:08:37;27.20;92.60
4643;DHT22;2334;48.710;9.622;2023-07-13T11:11:33;27.50;92.80
4643;DHT22;2334;48.710;9.622;2023-07-13T11:14:02;28.20;92.40
4643;DHT22;2334;48.710;9.622;2023-07-13T11:16:36;28.60;91.90
4643;DHT22;2334;48.710;9.622;2023-07-13T11:22:15;28.00;91.60
4643;DHT22;2334;48.710;9.622;2023-07-13T11:24:51;27.20;92.00
4643;DHT22;2334;48.710;9.622;2023-07-13T11:27:30;27.30;91.70
4643;DHT22;2334;48.710;9.622;2023-07-13T11:33:01;27.40;92.60
4643;DHT22;2334;48.710;9.622;2023-07-13T11:35:33;27.40;91.80
4643;DHT22;2334;48.710;9.622;2023-07-13T11:38:10;27.00;91.80
4643;DHT22;2334;48.710;9.622;2023-07-13T11:40:38;27.10;92.00
4643;DHT22;2334;48.710;9.622;2023-07-13T11:43:06;27.70;92.10
4643;DHT22;2334;48.710;9.622;2023-07-13T11:45:33;27.90;92.00
4643;DHT22;2334;48.710;9.622;2023-07-13T11:48:01;28.40;92.10
4643;DHT22;2334;48.710;9.622;2023-07-13T11:50:28;28.40;91.50
4643;DHT22;2334;48.710;9.622;2023-07-13T11:52:57;28.40;90.90
4643;DHT22;2334;48.710;9.622;2023-07-13T11:55:26;28.30;90.50
4643;DHT22;2334;48.710;9.622;2023-07-13T11:57:58;29.20;90.00
4643;DHT22;2334;48.710;9.622;2023-07-13T12:00:29;29.40;89.20
4643;DHT22;2334;48.710;9.622;2023-07-13T12:02:59;28.70;90.10
4643;DHT22;2334;48.710;9.622;2023-07-13T12:05:28;28.10;90.90
4643;DHT22;2334;48.710;9.622;2023-07-13T12:07:57;28.10;91.20
4643;DHT22;2334;48.710;9.622;2023-07-13T12:10:27;28.00;90.60
4643;DHT22;2334;48.710;9.622;2023-07-13T12:12:56;27.70;91.00
4643;DHT22;2334;48.710;9.622;2023-07-13T12:15:28;27.80;91.50
4643;DHT22;2334;48.710;9.622;2023-07-13T12:17:58;28.10;91.50
4643;DHT22;2334;48.710;9.622;2023-07-13T12:20:28;27.50;91.30
4643;DHT22;2334;48.710;9.622;2023-07-13T12:23:00;27.10;91.80
4643;DHT22;2334;48.710;9.622;2023-07-13T12:25:29;26.80;91.60
4643;DHT22;2334;48.710;9.622;2023-07-13T12:27:56;26.50;91.50
4643;DHT22;2334;48.710;9.622;2023-07-13T12:30:26;26.10;92.20
4643;DHT22;2334;48.710;9.622;2023-07-13T12:32:56;27.10;91.80
4643;DHT22;2334;48.710;9.622;2023-07-13T12:35:24;28.20;92.10
4643;DHT22;2334;48.710;9.622;2023-07-13T12:37:52;29.20;90.00
4643;DHT22;2334;48.710;9.622;2023-07-13T12:40:20;28.80;90.20
4643;DHT22;2334;48.710;9.622;2023-07-13T12:42:51;29.00;89.80
4643;DHT22;2334;48.710;9.622;2023-07-13T12:45:20;29.20;90.20
4643;DHT22;2334;48.710;9.622;2023-07-13T12:47:49;28.40;88.90
4643;DHT22;2334;48.710;9.622;2023-07-13T12:50:18;28.30;89.20
4643;DHT22;2334;48.710;9.622;2023-07-13T12:52:51;28.30;90.40
4643;DHT22;2334;48.710;9.622;2023-07-13T12:55:20;28.70;90.00
4643;DHT22;2334;48.710;9.622;2023-07-13T12:57:52;29.30;90.60
4643;DHT22;2334;48.710;9.622;2023-07-13T13:00:26;29.20;89.50
4643;DHT22;2334;48.710;9.622;2023-07-13T13:02:55;28.90;90.20
4643;DHT22;2334;48.710;9.622;2023-07-13T13:05:25;28.40;89.70
4643;DHT22;2334;48.710;9.622;2023-07-13T13:07:52;28.40;90.00
4643;DHT22;2334;48.710;9.622;2023-07-13T13:10:19;28.90;90.50
4643;DHT22;2334;48.710;9.622;2023-07-13T13:12:47;29.20;89.90
4643;DHT22;2334;48.710;9.622;2023-07-13T13:15:15;29.00;89.30
4643;DHT22;2334;48.710;9.622;2023-07-13T13:17:43;28.60;90.20
4643;DHT22;2334;48.710;9.622;2023-07-13T13:20:15;28.40;89.70
4643;DHT22;2334;48.710;9.622;2023-07-13T13:22:42;28.40;89.70
4643;DHT22;2334;48.710;9.622;2023-07-13T13:25:10;28.50;90.10
4643;DHT22;2334;48.710;9.622;2023-07-13T13:27:37;29.00;89.10
4643;DHT22;2334;48.710;9.622;2023-07-13T13:30:10;28.50;87.90
4643;DHT22;2334;48.710;9.622;2023-07-13T13:32:39;29.00;89.30
4643;DHT22;2334;48.710;9.622;2023-07-13T13:35:13;28.80;87.40
4643;DHT22;2334;48.710;9.622;2023-07-13T13:37:41;28.40;87.20
4643;DHT22;2334;48.710;9.622;2023-07-13T13:40:16;28.60;88.00
4643;DHT22;2334;48.710;9.622;2023-07-13T13:42:43;29.10;89.00
4643;DHT22;2334;48.710;9.622;2023-07-13T13:45:10;29.10;89.00
4643;DHT22;2334;48.710;9.622;2023-07-13T13:47:40;28.90;88.40
4643;DHT22;2334;48.710;9.622;2023-07-13T13:50:12;28.60;88.80
4643;DHT22;2334;48.710;9.622;2023-07-13T13:52:40;28.00;89.40
4643;DHT22;2334;48.710;9.622;2023-07-13T13:55:12;27.80;89.80
4643;DHT22;2334;48.710;9.622;2023-07-13T13:57:39;27.50;89.10
4643;DHT22;2334;48.710;9.622;2023-07-13T14:00:07;27.50;90.40
4643;DHT22;2334;48.710;9.622;2023-07-13T14:02:35;27.50;90.20
4643;DHT22;2334;48.710;9.622;2023-07-13T14:05:04;27.70;90.60
4643;DHT22;2334;48.710;9.622;2023-07-13T14:07:31;27.90;89.50
4643;DHT22;2334;48.710;9.622;2023-07-13T14:09:58;28.40;89.60
4643;DHT22;2334;48.710;9.622;2023-07-13T14:12:27;29.00;88.30
4643;DHT22;2334;48.710;9.622;2023-07-13T14:14:56;29.50;86.50
4643;DHT22;2334;48.710;9.622;2023-07-13T14:17:25;30.10;86.30
4643;DHT22;2334;48.710;9.622;2023-07-13T14:19:54;30.40;85.40
4643;DHT22;2334;48.710;9.622;2023-07-13T14:22:25;30.40;85.40
4643;DHT22;2334;48.710;9.622;2023-07-13T14:24:53;29.70;85.20
4643;DHT22;2334;48.710;9.622;2023-07-13T14:27:20;30.00;84.10
4643;DHT22;2334;48.710;9.622;2023-07-13T14:29:47;30.50;83.60
4643;DHT22;2334;48.710;9.622;2023-07-13T14:32:14;30.70;83.40
4643;DHT22;2334;48.710;9.622;2023-07-13T14:34:41;30.80;82.60
4643;DHT22;2334;48.710;9.622;2023-07-13T14:37:13;30.50;83.20
4643;DHT22;2334;48.710;9.622;2023-07-13T14:39:44;29.70;83.70
4643;DHT22;2334;48.710;9.622;2023-07-13T14:42:11;29.60;82.60
4643;DHT22;2334;48.710;9.622;2023-07-13T14:44:38;30.10;82.70
4643;DHT22;2334;48.710;9.622;2023-07-13T14:47:06;30.50;82.20
4643;DHT22;2334;48.710;9.622;2023-07-13T14:49:36;31.00;83.40
4643;DHT22;2334;48.710;9.622;2023-07-13T14:52:14;30.70;81.70
4643;DHT22;2334;48.710;9.622;2023-07-13T14:54:43;31.20;80.80
4643;DHT22;2334;48.710;9.622;2023-07-13T14:57:12;31.70;80.20
4643;DHT22;2334;48.710;9.622;2023-07-13T14:59:39;31.30;80.20
4643;DHT22;2334;48.710;9.622;2023-07-13T15:02:17;30.20;80.20
4643;DHT22;2334;48.710;9.622;2023-07-13T15:04:44;29.30;82.20
4643;DHT22;2334;48.710;9.622;2023-07-13T15:07:11;28.70;82.10
4643;DHT22;2334;48.710;9.622;2023-07-13T15:09:47;28.40;82.40
4643;DHT22;2334;48.710;9.622;2023-07-13T15:12:14;28.40;82.80
4643;DHT22;2334;48.710;9.622;2023-07-13T15:14:41;28.60;83.10
4643;DHT22;2334;48.710;9.622;2023-07-13T15:17:22;29.70;82.50
4643;DHT22;2334;48.710;9.622;2023-07-13T15:19:50;30.20;79.80
4643;DHT22;2334;48.710;9.622;2023-07-13T15:22:17;30.50;80.30
4643;DHT22;2334;48.710;9.622;2023-07-13T15:24:46;30.70;79.00
4643;DHT22;2334;48.710;9.622;2023-07-13T15:27:13;30.80;78.80
4643;DHT22;2334;48.710;9.622;2023-07-13T15:29:40;30.50;79.20
4643;DHT22;2334;48.710;9.622;2023-07-13T15:32:12;30.00;78.90
4643;DHT22;2334;48.710;9.622;2023-07-13T15:34:39;29.50;78.80
4643;DHT22;2334;48.710;9.622;2023-07-13T15:37:12;29.20;79.90
4643;DHT22;2334;48.710;9.622;2023-07-13T15:39:40;29.00;80.80
4643;DHT22;2334;48.710;9.622;2023-07-13T15:42:13;29.50;80.20
4643;DHT22;2334;48.710;9.622;2023-07-13T15:44:40;30.40;80.40
4643;DHT22;2334;48.710;9.622;2023-07-13T15:47:10;30.50;80.40
4643;DHT22;2334;48.710;9.622;2023-07-13T15:49:38;29.80;79.30
4643;DHT22;2334;48.710;9.622;2023-07-13T15:52:13;28.90;80.30
4643;DHT22;2334;48.710;9.622;2023-07-13T15:54:42;29.00;80.00
4643;DHT22;2334;48.710;9.622;2023-07-13T15:57:12;28.70;79.60
4643;DHT22;2334;48.710;9.622;2023-07-13T15:59:40;28.90;79.60
4643;DHT22;2334;48.710;9.622;2023-07-13T16:02:17;28.60;79.70
4643;DHT22;2334;48.710;9.622;2023-07-13T16:04:44;29.20;79.40
4643;DHT22;2334;48.710;9.622;2023-07-13T16:07:13;28.90;79.90
4643;DHT22;2334;48.710;9.622;2023-07-13T16:09:41;29.20;79.80
4643;DHT22;2334;48.710;9.622;2023-07-13T16:12:16;29.70;79.20
4643;DHT22;2334;48.710;9.622;2023-07-13T16:14:43;29.80;78.80
4643;DHT22;2334;48.710;9.622;2023-07-13T16:17:11;29.70;79.50
4643;DHT22;2334;48.710;9.622;2023-07-13T16:19:38;29.20;80.20
4643;DHT22;2334;48.710;9.622;2023-07-13T16:22:08;29.00;80.90